createdAt,value
2023-02-17T00:00:58.913Z,9.34
2023-02-17T00:03:26.919Z,9.29
2023-02-17T00:05:54.685Z,9.27
2023-02-17T00:08:22.405Z,9.32
2023-02-17T00:10:59.882Z,9.29
2023-02-17T00:13:29.193Z,9.26
2023-02-17T00:15:56.872Z,9.32
2023-02-17T00:18:24.975Z,8.86
2023-02-17T00:20:53.068Z,9.29
2023-02-17T00:23:20.715Z,9.32
2023-02-17T00:25:48.376Z,9.36
2023-02-17T00:28:16.091Z,9.29
2023-02-17T00:30:45.206Z,9.31
2023-02-17T00:33:12.872Z,9.24
2023-02-17T00:35:41.910Z,9.17
2023-02-17T00:38:09.597Z,9.34
2023-02-17T00:40:37.250Z,9.27
2023-02-17T00:43:04.843Z,9.24
2023-02-17T00:45:32.524Z,9.22
2023-02-17T00:48:01.572Z,9.26
2023-02-17T00:50:29.385Z,9.24
2023-02-17T00:52:57.148Z,9.20
2023-02-17T00:55:24.845Z,9.08
2023-02-17T00:57:52.505Z,8.35
2023-02-17T01:00:20.924Z,9.14
2023-02-17T01:02:48.636Z,9.12
2023-02-17T01:05:17.742Z,9.22
2023-02-17T01:07:45.454Z,9.22
2023-02-17T01:10:13.574Z,9.24
2023-02-17T01:12:41.226Z,9.20
2023-02-17T01:15:09.849Z,9.14
2023-02-17T01:17:37.608Z,9.09
2023-02-17T01:20:06.551Z,9.09
2023-02-17T01:22:35.705Z,9.00
2023-02-17T01:25:03.724Z,8.97
2023-02-17T01:27:31.497Z,8.93
2023-02-17T01:29:59.287Z,8.96
2023-02-17T01:32:27.047Z,8.81
2023-02-17T01:34:54.682Z,8.87
2023-02-17T01:37:22.397Z,8.77
2023-02-17T01:39:51.402Z,8.80
2023-02-17T01:42:20.727Z,8.76
2023-02-17T01:45:30.741Z,8.74
2023-02-17T01:48:03.937Z,8.72
2023-02-17T01:50:35.287Z,8.68
2023-02-17T01:53:05.640Z,8.73
2023-02-17T01:55:36.784Z,8.73
2023-02-17T01:58:05.758Z,8.72
2023-02-17T02:00:34.902Z,8.77
2023-02-17T02:03:04.927Z,8.77
2023-02-17T02:05:32.717Z,8.76
2023-02-17T02:08:00.493Z,8.68
2023-02-17T02:10:28.412Z,8.68
2023-02-17T02:12:57.467Z,8.64
2023-02-17T02:15:29.883Z,7.96
2023-02-17T02:18:12.645Z,8.66
2023-02-17T02:21:02.758Z,8.62
2023-02-17T02:23:51.690Z,8.51
2023-02-17T02:26:44.228Z,8.65
2023-02-17T02:29:31.393Z,8.58
2023-02-17T02:32:11.089Z,8.55
2023-02-17T02:34:47.430Z,8.63
2023-02-17T02:37:19.199Z,8.58
2023-02-17T02:39:50.163Z,8.61
2023-02-17T02:42:21.578Z,8.55
2023-02-17T02:44:49.770Z,8.55
2023-02-17T02:47:42.542Z,8.57
2023-02-17T02:50:15.379Z,8.26
2023-02-17T02:52:53.676Z,8.52
2023-02-17T02:55:35.130Z,8.56
2023-02-17T02:58:12.489Z,8.63
2023-02-17T03:00:47.107Z,8.60
2023-02-17T03:03:21.715Z,8.50
2023-02-17T03:05:58.326Z,8.54
2023-02-17T03:08:32.924Z,8.47
2023-02-17T03:11:02.235Z,8.40
2023-02-17T03:13:29.966Z,8.54
2023-02-17T03:15:58.526Z,8.44
2023-02-17T03:18:26.210Z,8.44
2023-02-17T03:21:01.698Z,8.41
2023-02-17T03:23:29.421Z,8.48
2023-02-17T03:25:57.706Z,8.40
2023-02-17T03:28:25.544Z,8.41
2023-02-17T03:30:53.228Z,8.46
2023-02-17T03:33:20.956Z,8.46
2023-02-17T03:35:48.607Z,8.45
2023-02-17T03:38:17.666Z,8.43
2023-02-17T03:40:45.383Z,8.43
2023-02-17T03:43:13.034Z,8.45
2023-02-17T03:45:40.827Z,8.47
2023-02-17T03:48:08.542Z,8.16
2023-02-17T03:50:36.209Z,8.46
2023-02-17T03:53:05.076Z,8.45
2023-02-17T03:55:34.127Z,8.39
2023-02-17T03:58:01.800Z,8.46
2023-02-17T04:00:29.619Z,8.51
2023-02-17T04:02:57.935Z,8.53
2023-02-17T04:05:25.940Z,8.53
2023-02-17T04:07:53.789Z,8.19
2023-02-17T04:10:21.669Z,8.49
2023-02-17T04:12:50.694Z,8.50
2023-02-17T04:15:18.619Z,8.46
2023-02-17T04:17:46.293Z,8.51
2023-02-17T04:20:14.110Z,8.55
2023-02-17T04:22:41.875Z,8.61
2023-02-17T04:25:09.574Z,8.63
2023-02-17T04:27:37.322Z,8.62
2023-02-17T04:30:08.129Z,8.60
2023-02-17T04:32:35.971Z,8.66
2023-02-17T04:35:03.637Z,8.69
2023-02-17T04:37:31.314Z,8.73
2023-02-17T04:39:59.078Z,7.89
2023-02-17T04:42:26.814Z,8.73
2023-02-17T04:44:54.446Z,8.47
2023-02-17T04:47:23.736Z,8.74
2023-02-17T04:49:51.367Z,8.82
2023-02-17T04:52:19.074Z,8.83
2023-02-17T04:54:46.970Z,8.89
2023-02-17T04:57:14.691Z,8.61
2023-02-17T04:59:42.334Z,8.90
2023-02-17T05:02:09.991Z,8.90
2023-02-17T05:04:39.093Z,8.96
2023-02-17T05:07:06.841Z,8.98
2023-02-17T05:09:34.504Z,8.89
2023-02-17T05:12:03.048Z,9.02
2023-02-17T05:14:31.626Z,8.12
2023-02-17T05:16:59.317Z,9.06
2023-02-17T05:19:26.979Z,9.08
2023-02-17T05:21:56.150Z,9.02
2023-02-17T05:24:23.850Z,8.92
2023-02-17T05:26:51.514Z,9.13
2023-02-17T05:29:19.169Z,9.09
2023-02-17T05:31:47.480Z,9.15
2023-02-17T05:34:15.311Z,8.90
2023-02-17T05:36:42.969Z,9.09
2023-02-17T05:39:12.782Z,9.04
2023-02-17T05:41:40.489Z,8.96
2023-02-17T05:44:08.201Z,8.97
2023-02-17T05:46:35.946Z,8.97
2023-02-17T05:49:03.576Z,9.01
2023-02-17T05:51:31.227Z,8.95
2023-02-17T05:53:58.873Z,8.97
2023-02-17T05:56:27.966Z,9.02
2023-02-17T05:58:55.603Z,9.04
2023-02-17T06:01:23.617Z,9.06
2023-02-17T06:03:51.370Z,9.09
2023-02-17T06:06:19.206Z,9.06
2023-02-17T06:08:47.045Z,9.17
2023-02-17T06:11:14.834Z,9.18
2023-02-17T06:13:43.858Z,9.21
2023-02-17T06:16:11.539Z,9.26
2023-02-17T06:18:39.262Z,9.27
2023-02-17T06:21:07.081Z,9.26
2023-02-17T06:23:34.806Z,9.28
2023-02-17T06:26:02.556Z,9.36
2023-02-17T06:28:30.287Z,9.36
2023-02-17T06:30:59.294Z,9.36
2023-02-17T06:33:27.186Z,9.38
2023-02-17T06:35:54.855Z,9.40
2023-02-17T06:38:22.592Z,9.40
2023-02-17T06:40:50.264Z,9.42
2023-02-17T06:43:18.015Z,9.39
2023-02-17T06:45:45.802Z,9.40
2023-02-17T06:48:14.852Z,9.41
2023-02-17T06:50:42.562Z,9.39
2023-02-17T06:53:10.277Z,9.15
2023-02-17T06:55:39.087Z,9.43
2023-02-17T06:58:07.325Z,9.48
2023-02-17T07:00:35.401Z,9.44
2023-02-17T07:03:03.374Z,9.46
2023-02-17T07:05:32.469Z,9.52
2023-02-17T07:08:00.137Z,9.52
2023-02-17T07:10:27.784Z,9.50
2023-02-17T07:12:55.600Z,9.52
2023-02-17T07:15:23.320Z,9.57
2023-02-17T07:17:51.176Z,9.61
2023-02-17T07:20:19.101Z,9.62
2023-02-17T07:22:48.098Z,9.58
2023-02-17T07:25:15.890Z,9.65
2023-02-17T07:27:43.721Z,9.68
2023-02-17T07:30:12.554Z,9.66
2023-02-17T07:32:40.248Z,9.69
2023-02-17T07:35:08.441Z,9.51
2023-02-17T07:37:36.236Z,9.73
2023-02-17T07:40:06.375Z,9.74
2023-02-17T07:42:34.184Z,9.71
2023-02-17T07:45:01.955Z,9.75
2023-02-17T07:47:29.597Z,9.82
2023-02-17T07:49:57.255Z,9.77
2023-02-17T07:52:25.113Z,9.78
2023-02-17T07:54:52.845Z,9.87
2023-02-17T07:57:21.944Z,9.93
2023-02-17T07:59:49.640Z,9.89
2023-02-17T08:02:17.395Z,9.86
2023-02-17T08:04:45.752Z,9.86
2023-02-17T08:07:13.494Z,9.80
2023-02-17T08:09:58.658Z,9.86
2023-02-17T08:12:45.214Z,9.83
2023-02-17T08:15:13.946Z,9.81
2023-02-17T08:17:41.479Z,9.81
2023-02-17T08:20:10.088Z,9.81
2023-02-17T08:22:37.896Z,9.76
2023-02-17T08:25:06.592Z,9.78
2023-02-17T08:27:35.799Z,8.97
2023-02-17T08:30:03.689Z,9.63
2023-02-17T08:32:31.563Z,9.66
2023-02-17T08:34:59.610Z,9.31
2023-02-17T08:37:27.335Z,9.65
2023-02-17T08:39:55.025Z,9.72
2023-02-17T08:42:22.876Z,9.81
2023-02-17T08:44:51.952Z,9.66
2023-02-17T08:47:19.737Z,9.75
2023-02-17T08:49:47.457Z,9.66
2023-02-17T08:52:15.172Z,9.65
2023-02-17T08:54:42.886Z,9.70
2023-02-17T08:57:10.561Z,9.70
2023-02-17T08:59:38.423Z,9.81
2023-02-17T09:02:08.231Z,9.43
2023-02-17T09:04:35.977Z,9.69
2023-02-17T09:07:04.116Z,9.75
2023-02-17T09:09:32.546Z,9.64
2023-02-17T09:12:00.503Z,9.71
2023-02-17T09:14:28.770Z,9.78
2023-02-17T09:16:57.347Z,9.73
2023-02-17T09:19:27.327Z,9.80
2023-02-17T09:21:55.250Z,9.86
2023-02-17T09:24:23.124Z,9.85
2023-02-17T09:26:50.847Z,9.87
2023-02-17T09:29:18.611Z,9.59
2023-02-17T09:31:46.465Z,9.96
2023-02-17T09:34:15.156Z,9.95
2023-02-17T09:36:44.297Z,9.98
2023-02-17T09:39:14.114Z,10.00
2023-02-17T09:41:45.184Z,10.07
2023-02-17T09:44:21.697Z,10.14
2023-02-17T09:47:01.831Z,10.19
2023-02-17T09:49:37.549Z,10.25
2023-02-17T09:52:14.586Z,10.19
2023-02-17T09:54:50.629Z,10.25
2023-02-17T09:57:22.693Z,10.28
2023-02-17T09:59:54.267Z,10.23
2023-02-17T10:02:28.807Z,9.29
2023-02-17T10:04:58.835Z,10.35
2023-02-17T10:07:33.361Z,10.38
2023-02-17T10:10:08.502Z,10.31
2023-02-17T10:12:41.238Z,10.17
2023-02-17T10:15:16.641Z,10.26
2023-02-17T10:17:51.813Z,10.25
2023-02-17T10:20:23.888Z,10.33
2023-02-17T10:22:57.093Z,9.87
2023-02-17T10:25:40.290Z,10.38
2023-02-17T10:28:10.429Z,10.30
2023-02-17T10:30:45.049Z,10.38
2023-02-17T10:33:18.208Z,10.40
2023-02-17T10:35:51.729Z,10.47
2023-02-17T10:38:37.722Z,10.45
2023-02-17T10:41:10.388Z,10.22
2023-02-17T10:43:38.036Z,10.45
2023-02-17T10:46:09.488Z,10.47
2023-02-17T10:48:41.737Z,10.50
2023-02-17T10:51:14.532Z,10.50
2023-02-17T10:53:47.512Z,9.74
2023-02-17T10:56:19.563Z,9.70
2023-02-17T10:58:53.382Z,10.70
2023-02-17T11:01:23.289Z,10.68
2023-02-17T11:04:01.806Z,10.63
2023-02-17T11:06:31.767Z,10.61
2023-02-17T11:09:04.331Z,10.67
2023-02-17T11:11:34.059Z,10.70
2023-02-17T11:14:13.391Z,10.70
2023-02-17T11:16:44.290Z,10.77
2023-02-17T11:19:23.452Z,10.79
2023-02-17T11:21:52.010Z,10.81
2023-02-17T11:24:21.463Z,10.81
2023-02-17T11:26:58.217Z,10.66
2023-02-17T11:29:26.410Z,10.69
2023-02-17T11:31:59.401Z,10.71
2023-02-17T11:34:29.325Z,10.71
2023-02-17T11:37:02.890Z,10.68
2023-02-17T11:39:31.898Z,10.64
2023-02-17T11:41:59.589Z,10.59
2023-02-17T11:44:29.235Z,10.69
2023-02-17T11:47:06.710Z,10.27
2023-02-17T11:50:12.293Z,10.72
2023-02-17T11:52:54.119Z,10.52
2023-02-17T11:55:28.013Z,10.46
2023-02-17T11:58:18.821Z,10.60
2023-02-17T12:00:55.527Z,10.51
2023-02-17T12:03:58.906Z,10.44
2023-02-17T12:06:39.879Z,10.36
2023-02-17T12:09:18.308Z,10.48
2023-02-17T12:11:55.961Z,10.35
2023-02-17T12:14:42.109Z,10.33
2023-02-17T12:17:18.900Z,10.27
2023-02-17T12:19:58.902Z,10.32
2023-02-17T12:22:33.712Z,10.25
2023-02-17T12:25:20.784Z,10.04
2023-02-17T12:28:04.030Z,10.23
2023-02-17T12:30:46.055Z,10.21
2023-02-17T12:33:34.891Z,10.19
2023-02-17T12:36:05.026Z,10.25
2023-02-17T12:38:35.045Z,10.18
2023-02-17T12:41:08.312Z,10.15
2023-02-17T12:43:43.596Z,10.12
2023-02-17T12:46:15.711Z,10.12
2023-02-17T12:48:50.463Z,10.06
2023-02-17T12:51:23.437Z,10.08
2023-02-17T12:53:56.735Z,10.13
2023-02-17T12:56:51.369Z,10.12
2023-02-17T12:59:23.769Z,10.19
2023-02-17T13:02:00.466Z,10.29
2023-02-17T13:04:29.804Z,10.37
2023-02-17T13:07:11.664Z,10.41
2023-02-17T13:09:43.289Z,10.48
2023-02-17T13:12:19.001Z,10.45
2023-02-17T13:14:50.011Z,10.46
2023-02-17T13:17:26.453Z,10.47
2023-02-17T13:20:28.544Z,10.49
2023-02-17T13:23:08.359Z,10.47
2023-02-17T13:25:37.899Z,10.51
2023-02-17T13:28:19.835Z,10.47
2023-02-17T13:30:52.279Z,10.54
2023-02-17T13:33:32.072Z,10.59
2023-02-17T13:35:59.939Z,10.56
2023-02-17T13:38:29.606Z,10.58
2023-02-17T13:41:01.516Z,10.48
2023-02-17T13:43:31.564Z,10.61
2023-02-17T13:46:02.924Z,10.66
2023-02-17T13:48:33.064Z,10.61
2023-02-17T13:51:02.520Z,10.54
2023-02-17T13:53:32.403Z,10.58
2023-02-17T13:56:02.189Z,10.69
2023-02-17T13:58:32.164Z,10.69
2023-02-17T14:01:03.027Z,10.73
2023-02-17T14:03:34.827Z,10.67
2023-02-17T14:06:04.010Z,10.78
2023-02-17T14:08:36.851Z,10.78
2023-02-17T14:11:09.695Z,10.85
2023-02-17T14:13:39.612Z,10.85
2023-02-17T14:16:26.652Z,10.99
2023-02-17T14:19:02.840Z,10.58
2023-02-17T14:21:30.590Z,10.93
2023-02-17T14:24:00.135Z,11.00
2023-02-17T14:26:30.632Z,10.87
2023-02-17T14:29:00.342Z,10.90
2023-02-17T14:31:30.136Z,11.03
2023-02-17T14:34:01.168Z,11.00
2023-02-17T14:36:32.483Z,10.82
2023-02-17T14:39:01.248Z,11.12
2023-02-17T14:41:28.761Z,11.12
2023-02-17T14:43:56.567Z,11.12
2023-02-17T14:46:24.637Z,11.17
2023-02-17T14:48:54.628Z,11.26
2023-02-17T14:51:24.037Z,11.28
2023-02-17T14:53:52.973Z,11.41
2023-02-17T14:56:26.296Z,11.26
2023-02-17T14:58:54.534Z,11.14
2023-02-17T15:01:25.177Z,11.31
2023-02-17T15:03:55.141Z,11.29
2023-02-17T15:06:28.825Z,11.36
2023-02-17T15:08:57.846Z,11.39
2023-02-17T15:11:30.673Z,11.40
2023-02-17T15:13:58.761Z,11.43
2023-02-17T15:16:26.474Z,11.25
2023-02-17T15:18:55.654Z,11.37
2023-02-17T15:21:28.400Z,11.43
2023-02-17T15:23:57.403Z,11.53
2023-02-17T15:26:25.423Z,11.36
2023-02-17T15:28:53.070Z,11.39
2023-02-17T15:31:22.265Z,11.49
2023-02-17T15:33:55.954Z,11.51
2023-02-17T15:36:25.854Z,11.41
2023-02-17T15:38:53.882Z,11.15
2023-02-17T15:41:24.766Z,11.32
2023-02-17T15:43:54.140Z,11.20
2023-02-17T15:46:23.902Z,11.22
2023-02-17T15:48:52.345Z,11.33
2023-02-17T15:51:20.813Z,11.17
2023-02-17T15:53:50.191Z,11.16
2023-02-17T15:56:21.238Z,11.10
2023-02-17T15:58:50.394Z,11.04
2023-02-17T16:01:23.055Z,11.09
2023-02-17T16:03:50.725Z,10.94
2023-02-17T16:06:18.384Z,10.91
2023-02-17T16:08:46.173Z,10.91
2023-02-17T16:11:17.102Z,10.89
2023-02-17T16:13:46.429Z,10.56
2023-02-17T16:16:18.808Z,10.65
2023-02-17T16:18:47.801Z,10.73
2023-02-17T16:21:15.743Z,10.71
2023-02-17T16:23:43.890Z,10.59
2023-02-17T16:26:23.933Z,10.65
2023-02-17T16:28:51.691Z,10.57
2023-02-17T16:31:19.509Z,10.56
2023-02-17T16:33:47.600Z,10.53
2023-02-17T16:36:17.572Z,10.48
2023-02-17T16:38:48.796Z,10.38
2023-02-17T16:41:22.310Z,10.52
2023-02-17T16:43:50.020Z,10.02
2023-02-17T16:46:24.443Z,10.15
2023-02-17T16:48:52.226Z,10.20
2023-02-17T16:51:19.965Z,10.18
2023-02-17T16:53:47.780Z,10.10
2023-02-17T16:56:21.225Z,10.13
2023-02-17T16:58:49.212Z,10.08
2023-02-17T17:01:17.136Z,10.09
2023-02-17T17:03:45.590Z,10.06
2023-02-17T17:06:19.810Z,10.02
2023-02-17T17:08:47.725Z,9.96
2023-02-17T17:11:19.413Z,9.98
2023-02-17T17:13:47.688Z,9.80
2023-02-17T17:16:19.974Z,9.85
2023-02-17T17:18:47.942Z,9.82
2023-02-17T17:21:18.098Z,9.86
2023-02-17T17:23:46.909Z,9.89
2023-02-17T17:26:25.469Z,9.96
2023-02-17T17:28:55.268Z,10.12
2023-02-17T17:31:23.948Z,10.25
2023-02-17T17:33:52.455Z,10.31
2023-02-17T17:36:24.593Z,10.23
2023-02-17T17:38:53.119Z,10.05
2023-02-17T17:41:22.262Z,9.91
2023-02-17T17:43:51.631Z,10.00
2023-02-17T17:46:24.238Z,10.05
2023-02-17T17:48:52.991Z,10.13
2023-02-17T17:51:22.625Z,10.01
2023-02-17T17:53:51.452Z,10.02
2023-02-17T17:56:20.203Z,10.05
2023-02-17T17:58:47.999Z,10.16
2023-02-17T18:01:16.550Z,10.15
2023-02-17T18:03:46.380Z,10.11
2023-02-17T18:06:17.359Z,9.95
2023-02-17T18:08:46.825Z,10.11
2023-02-17T18:11:15.598Z,9.60
2023-02-17T18:13:43.257Z,9.48
2023-02-17T18:16:11.053Z,9.85
2023-02-17T18:18:39.028Z,10.03
2023-02-17T18:21:08.228Z,10.03
2023-02-17T18:23:36.031Z,9.53
2023-02-17T18:26:03.766Z,10.01
2023-02-17T18:28:31.539Z,9.86
2023-02-17T18:30:59.356Z,10.03
2023-02-17T18:33:27.811Z,10.04
2023-02-17T18:35:55.504Z,9.96
2023-02-17T18:38:24.568Z,9.71
2023-02-17T18:40:53.023Z,9.94
2023-02-17T18:43:20.732Z,9.94
2023-02-17T18:45:49.180Z,9.73
2023-02-17T18:48:16.887Z,9.92
2023-02-17T18:50:44.659Z,9.88
2023-02-17T18:53:12.450Z,9.09
2023-02-17T18:55:41.505Z,9.72
2023-02-17T18:58:10.992Z,9.81
2023-02-17T19:00:40.184Z,9.68
2023-02-17T19:03:07.970Z,9.70
2023-02-17T19:05:35.756Z,9.68
2023-02-17T19:08:03.416Z,9.84
2023-02-17T19:10:31.100Z,9.94
2023-02-17T19:13:00.365Z,9.85
2023-02-17T19:15:27.975Z,9.78
2023-02-17T19:17:57.635Z,9.77
2023-02-17T19:20:27.692Z,9.74
2023-02-17T19:22:55.432Z,9.77
2023-02-17T19:25:24.216Z,9.76
2023-02-17T19:27:52.150Z,9.92
2023-02-17T19:30:21.440Z,9.82
2023-02-17T19:32:49.229Z,9.74
2023-02-17T19:35:17.243Z,9.48
2023-02-17T19:37:44.866Z,9.74
2023-02-17T19:40:12.754Z,9.65
2023-02-17T19:42:41.441Z,9.62
2023-02-17T19:45:09.880Z,9.66
2023-02-17T19:47:38.925Z,9.68
2023-02-17T19:50:08.073Z,9.78
2023-02-17T19:52:37.800Z,9.74
2023-02-17T19:55:06.110Z,9.68
2023-02-17T19:57:33.705Z,9.66
2023-02-17T20:00:01.379Z,9.67
2023-02-17T20:02:29.108Z,9.58
2023-02-17T20:04:58.182Z,9.59
2023-02-17T20:07:25.929Z,9.68
2023-02-17T20:09:53.677Z,9.69
2023-02-17T20:12:21.803Z,9.72
2023-02-17T20:14:49.662Z,9.74
2023-02-17T20:17:17.501Z,9.73
2023-02-17T20:19:45.280Z,9.61
2023-02-17T20:22:14.594Z,9.71
2023-02-17T20:24:42.657Z,8.90
2023-02-17T20:27:10.926Z,9.56
2023-02-17T20:29:38.671Z,9.58
2023-02-17T20:32:07.097Z,9.53
2023-02-17T20:34:37.392Z,9.56
2023-02-17T20:37:06.427Z,9.45
2023-02-17T20:39:38.384Z,9.48
2023-02-17T20:42:06.225Z,9.56
2023-02-17T20:44:33.936Z,9.54
2023-02-17T20:47:02.223Z,9.58
2023-02-17T20:49:29.914Z,9.49
2023-02-17T20:51:57.573Z,9.58
2023-02-17T20:54:26.130Z,9.49
2023-02-17T20:56:57.594Z,9.49
2023-02-17T20:59:25.271Z,9.45
2023-02-17T21:01:52.979Z,9.48
2023-02-17T21:04:20.693Z,9.35
2023-02-17T21:06:48.458Z,9.41
2023-02-17T21:09:18.232Z,9.32
2023-02-17T21:11:47.711Z,9.44
2023-02-17T21:14:17.012Z,9.36
2023-02-17T21:16:45.233Z,9.44
2023-02-17T21:19:13.224Z,9.10
2023-02-17T21:21:41.740Z,9.55
2023-02-17T21:24:09.605Z,9.41
2023-02-17T21:26:37.387Z,9.45
2023-02-17T21:29:05.210Z,9.34
2023-02-17T21:31:34.395Z,9.39
2023-02-17T21:34:02.183Z,9.39
2023-02-17T21:36:29.992Z,9.34
2023-02-17T21:38:57.798Z,9.07
2023-02-17T21:41:27.533Z,9.31
2023-02-17T21:44:13.113Z,9.25
2023-02-17T21:46:43.250Z,9.37
2023-02-17T21:49:12.328Z,9.35
2023-02-17T21:51:40.787Z,9.31
2023-02-17T21:54:09.356Z,9.30
2023-02-17T21:56:37.361Z,9.26
2023-02-17T21:59:06.117Z,9.21
2023-02-17T22:01:33.873Z,9.24
2023-02-17T22:04:03.378Z,9.30
2023-02-17T22:06:33.150Z,9.27
2023-02-17T22:09:00.932Z,9.25
2023-02-17T22:11:31.010Z,9.25
2023-02-17T22:14:00.024Z,9.14
2023-02-17T22:16:30.059Z,9.08
2023-02-17T22:18:58.334Z,9.20
2023-02-17T22:21:28.133Z,9.22
2023-02-17T22:23:55.850Z,9.12
2023-02-17T22:26:25.084Z,9.17
2023-02-17T22:28:53.685Z,9.15
2023-02-17T22:31:23.424Z,9.24
2023-02-17T22:33:51.148Z,9.12
2023-02-17T22:36:22.556Z,9.13
2023-02-17T22:38:52.607Z,9.12
2023-02-17T22:41:22.230Z,9.12
2023-02-17T22:43:50.800Z,8.94
2023-02-17T22:46:21.699Z,9.19
2023-02-17T22:48:51.293Z,9.22
2023-02-17T22:51:21.875Z,9.20
2023-02-17T22:53:51.398Z,9.15
2023-02-17T22:56:19.815Z,8.19
2023-02-17T22:58:47.533Z,9.14
2023-02-17T23:01:17.157Z,9.18
2023-02-17T23:03:46.094Z,9.22
2023-02-17T23:06:17.819Z,9.02
2023-02-17T23:08:46.133Z,9.00
2023-02-17T23:11:18.089Z,9.14
2023-02-17T23:13:46.266Z,9.20
2023-02-17T23:16:19.962Z,9.15
2023-02-17T23:18:47.723Z,9.18
2023-02-17T23:21:15.459Z,9.21
2023-02-17T23:23:43.079Z,8.33
2023-02-17T23:26:10.944Z,9.27
2023-02-17T23:28:39.976Z,9.24
2023-02-17T23:31:10.892Z,9.23
2023-02-17T23:33:38.806Z,9.17
2023-02-17T23:36:08.108Z,9.27
2023-02-17T23:38:35.942Z,9.21
2023-02-17T23:41:03.753Z,9.24
2023-02-17T23:43:31.736Z,9.19
2023-02-17T23:46:01.166Z,9.19
2023-02-17T23:48:29.039Z,9.19
2023-02-17T23:50:58.222Z,9.19
2023-02-17T23:53:26.252Z,9.16
2023-02-17T23:56:02.846Z,9.34
2023-02-17T23:58:30.757Z,9.15
